Time;durP1;ratioP1;P1;durP2;ratioP2;P2;SDS_P1;SDS_P2;PMS_P1;PMS_P2;Temp;Humidity;BMP_temperature;BMP_pressure;BME280_temperature;BME280_humidity;BME280_pressure;Samples;Min_cycle;Max_cycle;Signal;HPM_P1;HPM_P2
2023/04/11 00:00:29;;;;;;;7.88;7.00;;;;;;;10.48;53.80;97807.78;4978333;28;20061;-75
2023/04/11 00:02:58;;;;;;;8.98;7.60;;;;;;;10.40;54.58;97805.56;4978211;28;20034;-76
2023/04/11 00:05:25;;;;;;;8.35;7.45;;;;;;;10.40;54.34;97786.72;5012039;28;20534;-75
2023/04/11 00:07:50;;;;;;;8.85;7.90;;;;;;;10.36;54.18;97783.69;4994580;28;20034;-75
2023/04/11 00:10:16;;;;;;;9.93;7.97;;;;;;;10.40;54.41;97789.41;4978072;28;20037;-76
2023/04/11 00:12:41;;;;;;;9.48;7.93;;;;;;;10.33;54.21;97772.63;4962134;28;20463;-76
2023/04/11 00:15:08;;;;;;;8.07;6.95;;;;;;;10.39;54.35;97774.31;4998397;28;20026;-76
2023/04/11 00:17:36;;;;;;;8.30;7.50;;;;;;;10.43;54.49;97778.94;4978454;28;20040;-76
2023/04/11 00:20:06;;;;;;;8.05;7.25;;;;;;;10.34;54.70;97766.16;4994858;28;20037;-76
2023/04/11 00:22:35;;;;;;;8.55;7.63;;;;;;;10.30;56.92;97759.69;4991333;28;20033;-75
2023/04/11 00:25:00;;;;;;;8.68;7.75;;;;;;;10.20;58.78;97746.91;5012101;28;20379;-76
2023/04/11 00:27:26;;;;;;;8.95;7.07;;;;;;;10.15;58.52;97736.09;4978161;28;20053;-75
2023/04/11 00:29:56;;;;;;;7.95;7.15;;;;;;;10.27;57.50;97735.94;4976606;28;20026;-75
2023/04/11 00:32:21;;;;;;;8.43;7.63;;;;;;;10.29;57.26;97736.53;4978755;28;20033;-76
2023/04/11 00:34:48;;;;;;;8.35;7.28;;;;;;;10.32;57.47;97719.84;4977939;28;20025;-76
2023/04/11 00:37:13;;;;;;;8.38;7.07;;;;;;;10.22;57.40;97736.72;4978187;28;20037;-75
2023/04/11 00:39:39;;;;;;;8.32;7.20;;;;;;;10.29;57.79;97726.56;4994153;28;20116;-75
2023/04/11 00:42:06;;;;;;;7.85;7.03;;;;;;;10.32;56.37;97717.16;4977841;28;20044;-76
2023/04/11 00:44:32;;;;;;;7.38;6.57;;;;;;;10.30;56.82;97722.81;4993718;28;20018;-76
2023/04/11 00:46:59;;;;;;;7.78;6.95;;;;;;;10.35;57.74;97751.66;4977972;28;20137;-76
2023/04/11 00:49:24;;;;;;;8.13;7.32;;;;;;;10.24;58.69;97763.38;4977759;28;20134;-76
2023/04/11 00:51:50;;;;;;;8.50;7.22;;;;;;;10.17;59.41;97766.28;4977706;28;20120;-76
2023/04/11 00:54:17;;;;;;;7.78;6.97;;;;;;;10.15;59.30;97783.75;4994008;28;20022;-75
2023/04/11 00:56:43;;;;;;;8.82;7.57;;;;;;;10.14;61.64;97772.16;4962173;28;20494;-75
2023/04/11 00:59:09;;;;;;;8.38;7.32;;;;;;;10.06;63.30;97767.19;4993941;28;20109;-76
2023/04/11 01:01:35;;;;;;;9.35;8.43;;;;;;;9.72;65.98;97779.13;4977776;28;20038;-76
2023/04/11 01:04:00;;;;;;;9.40;8.02;;;;;;;9.86;66.26;97774.19;4977549;28;20044;-76
2023/04/11 01:06:29;;;;;;;10.20;8.55;;;;;;;9.70;67.04;97776.69;4977729;28;20399;-76
2023/04/11 01:08:55;;;;;;;11.15;9.13;;;;;;;9.60;67.21;97773.88;4978635;28;20080;-76
2023/04/11 01:11:20;;;;;;;10.85;9.75;;;;;;;9.44;69.23;97777.41;4997629;28;20124;-75
2023/04/11 01:13:45;;;;;;;11.75;10.65;;;;;;;9.69;68.27;97775.06;4978270;28;20072;-76
2023/04/11 01:16:11;;;;;;;11.88;10.23;;;;;;;9.61;68.18;97778.16;4987994;28;20038;-76
2023/04/11 01:18:37;;;;;;;12.75;11.52;;;;;;;9.42;70.63;97784.91;4981391;28;20076;-76
2023/04/11 01:21:03;;;;;;;18.67;17.17;;;;;;;9.40;72.86;97775.47;4981452;28;20045;-76
2023/04/11 01:23:28;;;;;;;14.88;13.57;;;;;;;9.33;69.78;97781.00;4978349;28;20057;-76
2023/04/11 01:25:54;;;;;;;17.60;16.10;;;;;;;9.25;71.24;97762.59;4997388;28;20037;-75
2023/04/11 01:28:20;;;;;;;15.88;14.57;;;;;;;9.39;70.79;97758.50;4981220;28;20022;-76
2023/04/11 01:30:46;;;;;;;18.48;16.88;;;;;;;9.48;70.19;97766.97;4981219;28;20550;-75
2023/04/11 01:33:13;;;;;;;17.67;16.27;;;;;;;9.29;71.05;97768.31;4981009;28;20222;-75
2023/04/11 01:35:38;;;;;;;18.98;17.58;;;;;;;9.19;71.22;97768.97;4997601;28;20033;-75
2023/04/11 01:38:04;;;;;;;17.95;16.52;;;;;;;8.91;72.36;97771.75;4997359;28;20032;-75
2023/04/11 01:40:31;;;;;;;29.75;27.60;;;;;;;9.08;73.12;97761.81;4997170;28;20132;-76
2023/04/11 01:42:57;;;;;;;38.03;35.45;;;;;;;9.23;74.54;97748.63;4980644;28;20029;-75
2023/04/11 01:45:24;;;;;;;44.40;41.80;;;;;;;9.30;74.81;97748.44;4981031;28;20402;-75
2023/04/11 01:47:50;;;;;;;47.10;44.45;;;;;;;9.29;75.44;97752.19;4980867;28;20460;-76
2023/04/11 01:50:16;;;;;;;45.35;42.75;;;;;;;9.27;74.45;97741.69;4980799;28;20033;-76
2023/04/11 01:52:41;;;;;;;49.78;46.90;;;;;;;9.07;76.06;97730.66;4980541;28;20100;-76
2023/04/11 01:55:07;;;;;;;48.85;46.15;;;;;;;8.95;76.34;97740.66;4980997;28;20585;-75
2023/04/11 01:57:34;;;;;;;53.92;51.00;;;;;;;9.03;76.69;97735.69;5014465;28;20049;-76
2023/04/11 02:00:00;;;;;;;67.80;64.18;;;;;;;8.86;78.08;97731.38;4980739;28;20337;-76
2023/04/11 02:02:25;;;;;;;79.80;75.68;;;;;;;8.86;79.11;97731.38;4980489;28;20034;-76
2023/04/11 02:04:51;;;;;;;77.32;73.50;;;;;;;9.13;77.89;97721.59;4980366;28;20030;-76
2023/04/11 02:07:16;;;;;;;76.28;72.57;;;;;;;8.88;78.50;97724.72;4980523;28;20523;-76
2023/04/11 02:09:41;;;;;;;77.50;73.60;;;;;;;9.09;77.88;97717.78;5014148;28;20045;-76
2023/04/11 02:12:07;;;;;;;74.13;70.40;;;;;;;8.86;79.02;97716.09;4980343;28;20533;-75
2023/04/11 02:14:43;;;;;;;72.20;68.53;;;;;;;8.89;78.20;97720.97;4967835;28;20043;-76
2023/04/11 02:17:11;;;;;;;74.82;71.05;;;;;;;8.84;78.95;97717.41;4978627;28;20064;-75
2023/04/11 02:19:40;;;;;;;84.03;79.82;;;;;;;8.81;79.22;97717.88;4980320;28;20049;-76
2023/04/11 02:22:08;;;;;;;78.15;74.28;;;;;;;8.76;78.83;97709.75;4992168;28;20084;-76
2023/04/11 02:24:34;;;;;;;84.65;80.45;;;;;;;8.62;80.46;97711.13;4980037;28;20036;-76
2023/04/11 02:27:00;;;;;;;89.20;84.80;;;;;;;8.90;80.24;97705.66;4977023;28;20120;-76
2023/04/11 02:29:27;;;;;;;86.15;81.97;;;;;;;8.84;80.03;97701.28;4985126;28;20563;-76
2023/04/11 02:31:52;;;;;;;88.95;84.55;;;;;;;8.87;80.13;97706.16;4978308;28;20034;-76
2023/04/11 02:34:17;;;;;;;90.32;85.93;;;;;;;8.83;81.25;97716.59;5013634;28;20021;-76
2023/04/11 02:36:44;;;;;;;94.47;89.68;;;;;;;8.92;80.96;97715.09;4996204;28;20096;-76
2023/04/11 02:39:10;;;;;;;93.25;88.45;;;;;;;8.86;81.24;97708.06;4979996;28;20025;-75
2023/04/11 02:41:39;;;;;;;91.60;87.07;;;;;;;8.90;81.93;97716.41;4979870;28;20038;-76
2023/04/11 02:44:04;;;;;;;94.22;89.63;;;;;;;8.84;81.75;97702.13;4996012;28;20022;-76
2023/04/11 02:46:30;;;;;;;96.43;91.72;;;;;;;8.99;81.89;97690.75;4979726;28;20037;-76
2023/04/11 02:48:55;;;;;;;93.25;88.75;;;;;;;8.70;81.62;97690.06;4979690;28;20168;-76
2023/04/11 02:51:21;;;;;;;91.07;86.57;;;;;;;8.83;81.43;97688.91;4979659;28;20037;-76
2023/04/11 02:53:47;;;;;;;93.82;89.22;;;;;;;8.75;81.97;97682.06;4979452;28;20108;-76
2023/04/11 02:56:17;;;;;;;95.45;90.70;;;;;;;8.65;81.63;97673.06;4964370;28;20533;-75
2023/04/11 02:58:45;;;;;;;95.78;90.97;;;;;;;8.78;81.54;97670.03;4995826;28;20041;-76
2023/04/11 03:01:15;;;;;;;94.15;89.38;;;;;;;8.57;81.95;97668.09;4995715;28;20165;-76
2023/04/11 03:03:41;;;;;;;92.35;87.55;;;;;;;8.74;82.07;97668.91;4976334;28;20072;-76
2023/04/11 03:06:07;;;;;;;91.60;86.90;;;;;;;8.86;82.05;97680.38;4938044;28;20061;-76
2023/04/11 03:08:36;;;;;;;93.28;88.47;;;;;;;8.87;81.38;97669.38;4995459;28;20518;-75
2023/04/11 03:11:02;;;;;;;97.97;92.95;;;;;;;8.71;82.10;97672.06;4979514;28;20029;-76
2023/04/11 03:13:28;;;;;;;93.90;89.10;;;;;;;9.03;80.86;97679.28;4975821;28;20177;-76
2023/04/11 03:15:53;;;;;;;99.07;93.93;;;;;;;8.75;82.79;97673.22;4966823;28;20029;-76
2023/04/11 03:18:22;;;;;;;100.78;95.68;;;;;;;8.69;83.06;97671.50;4995246;28;20503;-76
2023/04/11 03:20:49;;;;;;;101.28;96.13;;;;;;;8.64;83.62;97674.13;4995455;28;20033;-76
2023/04/11 03:23:15;;;;;;;95.70;90.90;;;;;;;8.82;82.53;97676.56;4975752;28;20034;-76
2023/04/11 03:25:43;;;;;;;95.43;90.72;;;;;;;8.76;82.86;97672.16;4979274;28;20022;-76
2023/04/11 03:28:09;;;;;;;100.75;95.75;;;;;;;8.64;83.36;97668.75;4995306;28;20423;-76
2023/04/11 03:30:39;;;;;;;91.60;86.88;;;;;;;8.56;84.61;97666.50;4979029;28;20033;-76
2023/04/11 03:33:08;;;;;;;89.57;84.95;;;;;;;8.82;82.78;97655.09;4978546;28;20030;-76
2023/04/11 03:35:33;;;;;;;89.82;84.88;;;;;;;8.59;83.94;97660.63;4991874;28;20117;-75
2023/04/11 03:37:59;;;;;;;87.85;83.15;;;;;;;8.59;83.92;97661.44;4965993;28;20031;-76
2023/04/11 03:40:25;;;;;;;90.22;85.43;;;;;;;8.41;84.63;97656.31;4962932;28;20483;-76
2023/04/11 03:43:01;;;;;;;96.15;90.93;;;;;;;8.63;84.00;97662.59;4979997;28;20030;-76
2023/04/11 03:45:30;;;;;;;92.93;87.93;;;;;;;8.52;84.78;97666.16;4979311;28;20084;-75
2023/04/11 03:47:58;;;;;;;93.47;88.57;;;;;;;8.65;84.44;97663.16;4978934;28;20025;-76
2023/04/11 03:50:29;;;;;;;93.90;88.97;;;;;;;8.71;84.15;97674.75;4979513;28;20034;-75
2023/04/11 03:52:59;;;;;;;92.68;87.50;;;;;;;8.45;85.02;97678.13;4975528;28;20503;-76
2023/04/11 03:55:24;;;;;;;90.13;85.15;;;;;;;8.38;85.68;97685.50;4978741;28;20095;-75
2023/04/11 03:57:51;;;;;;;89.00;84.00;;;;;;;8.26;87.58;97682.91;4978601;28;20169;-76
2023/04/11 04:00:18;;;;;;;88.88;83.85;;;;;;;8.33;86.97;97684.34;4959180;28;20030;-75
2023/04/11 04:02:54;;;;;;;89.78;84.78;;;;;;;8.61;84.86;97680.00;4966839;28;20037;-76
2023/04/11 04:05:20;;;;;;;92.57;87.47;;;;;;;8.66;85.24;97672.03;4994542;28;20026;-76
2023/04/11 04:07:45;;;;;;;89.47;84.57;;;;;;;8.64;86.17;97674.13;4978291;28;20484;-76
2023/04/11 04:10:21;;;;;;;;;;;;;;;8.40;86.47;97696.81;4980225;28;20566;-76
2023/04/11 04:12:52;;;;;;;90.30;85.38;;;;;;;8.45;86.40;97686.16;4978647;28;20286;-76
2023/04/11 04:15:31;;;;;;;95.43;90.18;;;;;;;8.65;85.73;97678.44;4952589;28;20068;-76
2023/04/11 04:17:58;;;;;;;89.97;84.80;;;;;;;8.41;86.74;97679.63;4978406;28;20033;-76
2023/04/11 04:20:37;;;;;;;85.68;80.78;;;;;;;8.60;87.40;97679.19;4965583;28;20056;-76
2023/04/11 04:23:03;;;;;;;85.78;80.65;;;;;;;8.32;88.25;97687.28;4990884;28;20076;-75
2023/04/11 04:25:49;;;;;;;83.78;79.07;;;;;;;8.18;89.82;97694.81;4956785;28;20483;-76
2023/04/11 04:28:19;;;;;;;81.97;77.35;;;;;;;8.21;89.03;97696.97;4978011;28;20038;-76
2023/04/11 04:30:48;;;;;;;77.90;73.57;;;;;;;8.23;90.22;97694.91;4978666;28;20083;-76
2023/04/11 04:33:17;;;;;;;79.70;75.18;;;;;;;8.41;88.62;97701.09;4994430;28;20046;-76
2023/04/11 04:35:45;;;;;;;79.13;74.68;;;;;;;8.32;89.62;97714.13;4978528;28;20037;-75
2023/04/11 04:38:16;;;;;;;74.93;70.85;;;;;;;8.35;89.68;97719.78;4978060;28;20048;-75
2023/04/11 04:40:44;;;;;;;73.10;68.97;;;;;;;8.28;89.35;97713.75;4978436;28;20116;-76
2023/04/11 04:43:17;;;;;;;75.20;71.05;;;;;;;8.38;88.77;97723.06;4977601;28;20412;-75
2023/04/11 04:45:51;;;;;;;76.68;72.47;;;;;;;8.40;89.06;97723.66;4979261;28;20095;-76
2023/04/11 04:48:24;;;;;;;69.55;65.38;;;;;;;8.35;89.18;97730.53;4994032;28;20041;-76
2023/04/11 04:50:49;;;;;;;70.38;66.20;;;;;;;8.56;88.51;97736.25;4994013;28;20456;-76
2023/04/11 04:53:15;;;;;;;70.70;66.68;;;;;;;8.29;89.76;97736.88;5020881;23;20045;-76
2023/04/11 04:55:46;;;;;;;72.40;68.60;;;;;;;8.19;88.46;97731.28;4998758;28;20629;-76
2023/04/11 04:58:11;;;;;;;71.45;67.93;;;;;;;8.17;88.53;97749.47;5013664;28;20033;-76
2023/04/11 05:00:39;;;;;;;74.25;70.68;;;;;;;8.09;87.32;97747.19;4997050;28;20497;-76
2023/04/11 05:03:09;;;;;;;69.65;66.53;;;;;;;7.95;81.61;97745.84;5026403;28;20065;-77
2023/04/11 05:05:35;;;;;;;50.78;48.67;;;;;;;7.91;81.09;97746.56;5009539;28;20192;-76
2023/04/11 05:08:02;;;;;;;57.30;54.80;;;;;;;7.99;81.90;97752.34;4987467;28;20027;-76
2023/04/11 05:10:29;;;;;;;56.85;54.50;;;;;;;7.78;80.87;97754.88;4999904;28;20045;-76
2023/04/11 05:12:55;;;;;;;61.80;59.10;;;;;;;7.80;82.03;97764.31;4993784;28;20026;-76
2023/04/11 05:15:22;;;;;;;65.68;62.80;;;;;;;7.72;82.86;97777.28;4993757;28;20503;-76
2023/04/11 05:17:48;;;;;;;69.82;66.72;;;;;;;7.84;82.53;97781.53;5010133;28;20475;-76
2023/04/11 05:20:15;;;;;;;65.05;62.08;;;;;;;7.78;83.47;97787.84;4978065;28;20037;-76
2023/04/11 05:22:43;;;;;;;67.53;64.53;;;;;;;7.68;83.83;97796.50;5000147;28;20052;-76
2023/04/11 05:25:10;;;;;;;64.10;61.38;;;;;;;7.63;82.93;97800.94;5011165;28;20507;-76
2023/04/11 05:27:37;;;;;;;69.90;66.80;;;;;;;7.51;84.79;97802.81;4994063;28;20030;-76
2023/04/11 05:30:02;;;;;;;62.55;59.60;;;;;;;7.62;82.99;97807.34;4993548;28;20030;-76
2023/04/11 05:32:32;;;;;;;66.95;64.05;;;;;;;7.44;83.58;97796.75;4978798;28;20022;-76
2023/04/11 05:34:58;;;;;;;65.07;62.17;;;;;;;7.63;82.29;97800.94;5009680;28;20034;-76
2023/04/11 05:37:36;;;;;;;63.42;60.72;;;;;;;7.63;82.16;97800.94;5010139;28;20026;-76
2023/04/11 05:40:01;;;;;;;68.13;65.05;;;;;;;7.51;84.17;97802.81;5009780;28;20101;-76
2023/04/11 05:42:27;;;;;;;72.30;68.90;;;;;;;7.53;84.06;97800.72;5009875;28;20061;-76
2023/04/11 05:44:52;;;;;;;68.93;65.82;;;;;;;7.37;84.16;97806.78;4993228;28;20037;-76
2023/04/11 05:47:17;;;;;;;69.70;66.50;;;;;;;7.57;83.16;97812.59;5010001;28;20026;-76
2023/04/11 05:49:43;;;;;;;71.75;68.45;;;;;;;7.42;83.86;97802.34;4993435;28;20099;-76
2023/04/11 05:52:08;;;;;;;72.63;69.32;;;;;;;7.47;82.42;97796.28;4993367;28;20030;-76
2023/04/11 05:54:35;;;;;;;72.35;68.95;;;;;;;7.54;84.33;97799.66;5009609;28;20245;-76
2023/04/11 05:57:01;;;;;;;74.32;70.93;;;;;;;7.64;83.31;97794.53;5011979;28;20034;-76
2023/04/11 05:59:27;;;;;;;74.35;70.68;;;;;;;7.93;85.40;97800.75;5013394;28;20038;-77
2023/04/11 06:01:53;;;;;;;71.68;68.18;;;;;;;8.09;84.98;97795.47;5014767;28;20029;-77
2023/04/11 06:04:19;;;;;;;71.25;67.80;;;;;;;7.93;84.27;97800.75;5014267;28;20042;-77
2023/04/11 06:06:45;;;;;;;76.15;72.38;;;;;;;7.90;84.20;97788.66;5013290;28;20127;-77
2023/04/11 06:09:10;;;;;;;70.25;66.75;;;;;;;8.07;84.26;97770.75;4996605;28;20041;-77
2023/04/11 06:11:35;;;;;;;69.80;66.53;;;;;;;7.96;83.26;97800.31;4996552;28;20021;-76
2023/04/11 06:14:01;;;;;;;72.60;69.00;;;;;;;7.86;85.70;97795.53;5012668;28;20041;-76
2023/04/11 06:16:26;;;;;;;73.13;69.57;;;;;;;8.02;84.69;97789.44;5014597;28;20061;-77
2023/04/11 06:18:51;;;;;;;73.22;69.53;;;;;;;7.98;84.51;97780.22;5012906;28;20038;-77
2023/04/11 06:21:17;;;;;;;71.80;68.40;;;;;;;7.97;83.92;97792.00;5011949;28;20029;-77
2023/04/11 06:23:42;;;;;;;70.55;67.15;;;;;;;7.92;84.97;97794.56;4997793;28;20030;-77
2023/04/11 06:26:08;;;;;;;69.18;65.78;;;;;;;8.02;84.02;97783.25;5012632;28;20395;-75
2023/04/11 06:28:33;;;;;;;72.43;68.75;;;;;;;8.03;84.27;97791.03;5013814;28;20046;-75
2023/04/11 06:30:58;;;;;;;72.03;68.45;;;;;;;7.87;84.93;97775.72;4996282;28;20087;-75
2023/04/11 06:33:24;;;;;;;70.25;66.75;;;;;;;8.04;83.70;97759.69;4995963;28;20042;-75
2023/04/11 06:35:49;;;;;;;73.20;69.72;;;;;;;7.91;83.20;97771.50;5012675;28;20022;-75
2023/04/11 06:38:15;;;;;;;72.30;68.78;;;;;;;8.01;84.26;97777.06;5013747;28;20292;-75
2023/04/11 06:40:40;;;;;;;72.22;68.88;;;;;;;7.63;83.27;97811.66;5012420;28;20435;-75
2023/04/11 06:43:05;;;;;;;69.07;65.78;;;;;;;7.50;85.17;97819.94;4995784;28;20040;-75
2023/04/11 06:45:31;;;;;;;73.70;70.18;;;;;;;7.92;84.89;97821.38;5012491;28;20414;-75
2023/04/11 06:47:56;;;;;;;70.25;66.68;;;;;;;8.12;85.12;97810.28;5012196;28;20046;-75
2023/04/11 06:50:22;;;;;;;70.63;67.03;;;;;;;8.16;84.67;97796.16;5012320;28;20030;-75
2023/04/11 06:52:47;;;;;;;71.05;67.53;;;;;;;8.13;84.45;97780.53;5012091;28;20284;-75
2023/04/11 06:55:14;;;;;;;67.65;64.35;;;;;;;8.05;84.04;97782.78;5011974;28;20036;-75
2023/04/11 06:57:41;;;;;;;69.38;65.95;;;;;;;7.90;84.25;97799.38;5009123;28;20125;-75
2023/04/11 07:00:07;;;;;;;69.63;66.05;;;;;;;8.31;84.40;97803.69;4992467;28;20019;-76
2023/04/11 07:02:35;;;;;;;73.32;69.72;;;;;;;7.96;83.99;97790.38;5011247;28;20041;-75
2023/04/11 07:05:00;;;;;;;72.50;68.90;;;;;;;8.12;84.47;97789.63;5011830;28;20435;-75
2023/04/11 07:07:26;;;;;;;70.88;67.38;;;;;;;8.01;85.08;97809.25;5011623;28;20034;-75
2023/04/11 07:09:51;;;;;;;71.30;67.82;;;;;;;8.23;85.30;97812.09;5011914;28;20030;-76
2023/04/11 07:12:17;;;;;;;69.25;65.75;;;;;;;8.48;84.25;97814.47;5011777;28;20476;-75
2023/04/11 07:14:42;;;;;;;67.55;64.15;;;;;;;8.70;84.26;97815.44;5011731;28;20390;-75
2023/04/11 07:17:08;;;;;;;67.47;64.05;;;;;;;8.62;84.42;97827.34;5012067;28;20088;-75
2023/04/11 07:19:33;;;;;;;65.88;62.67;;;;;;;8.62;84.60;97821.16;5011929;28;20080;-75
2023/04/11 07:21:59;;;;;;;69.53;65.97;;;;;;;8.84;84.02;97814.06;4992285;28;20483;-75
2023/04/11 07:24:24;;;;;;;69.53;66.10;;;;;;;8.96;82.59;97828.25;5001363;28;20033;-75
2023/04/11 07:26:52;;;;;;;66.57;63.42;;;;;;;8.76;83.86;97822.50;4995554;28;20553;-75
2023/04/11 07:29:17;;;;;;;69.03;65.93;;;;;;;8.72;82.84;97834.78;5011616;28;20555;-75
2023/04/11 07:31:43;;;;;;;67.50;64.35;;;;;;;8.76;82.43;97834.06;5011520;28;20556;-75
2023/04/11 07:34:09;;;;;;;71.18;67.95;;;;;;;8.80;82.55;97829.00;5011368;28;20028;-75
2023/04/11 07:36:35;;;;;;;66.10;62.90;;;;;;;8.79;84.44;97830.91;5011707;28;20030;-75
2023/04/11 07:39:00;;;;;;;68.40;65.22;;;;;;;9.00;82.40;97834.75;5011351;28;20084;-76
2023/04/11 07:41:26;;;;;;;67.43;64.30;;;;;;;8.67;82.62;97835.50;5012682;28;20542;-76
2023/04/11 07:43:51;;;;;;;69.15;65.78;;;;;;;8.64;82.35;97835.16;4994744;28;20088;-77
2023/04/11 07:46:17;;;;;;;63.20;60.40;;;;;;;8.65;80.44;97847.53;5008311;28;20088;-76
2023/04/11 07:48:42;;;;;;;67.35;64.25;;;;;;;8.53;81.74;97844.09;5001158;28;20539;-76
2023/04/11 07:51:07;;;;;;;64.57;61.72;;;;;;;8.98;81.28;97844.91;5011265;28;20037;-76
2023/04/11 07:53:33;;;;;;;69.85;66.75;;;;;;;8.79;81.06;97865.81;5010797;28;20034;-76
2023/04/11 07:55:59;;;;;;;66.07;63.20;;;;;;;8.90;79.92;97861.41;5011135;28;20061;-76
2023/04/11 07:58:24;;;;;;;68.60;65.70;;;;;;;8.77;82.19;97862.53;4994988;28;20486;-76
2023/04/11 08:00:51;;;;;;;65.68;62.78;;;;;;;9.00;81.34;97861.59;4994741;28;20073;-76
2023/04/11 08:03:17;;;;;;;63.80;61.03;;;;;;;8.98;80.04;97874.47;5012037;28;20083;-76
2023/04/11 08:05:43;;;;;;;66.75;63.72;;;;;;;9.12;80.69;97865.03;4994667;28;20049;-76
2023/04/11 08:08:08;;;;;;;58.97;56.38;;;;;;;9.27;80.68;97862.59;5012043;28;20080;-76
2023/04/11 08:10:33;;;;;;;59.22;56.42;;;;;;;9.20;79.64;97867.31;5010901;28;20114;-76
2023/04/11 08:12:59;;;;;;;49.38;47.08;;;;;;;9.10;78.97;97869.84;4994243;28;20487;-76
2023/04/11 08:15:25;;;;;;;44.45;42.42;;;;;;;9.26;76.62;97874.41;5010776;28;20038;-76
2023/04/11 08:17:54;;;;;;;43.05;40.95;;;;;;;9.39;77.52;97865.19;5010600;28;20113;-76
2023/04/11 08:20:21;;;;;;;41.42;39.63;;;;;;;9.34;75.64;97874.00;5010114;28;20484;-76
2023/04/11 08:22:46;;;;;;;24.17;22.92;;;;;;;9.49;74.97;97860.81;4997412;28;20076;-77
2023/04/11 08:25:13;;;;;;;18.25;17.25;;;;;;;9.35;73.52;97867.56;5007673;28;20041;-76
2023/04/11 08:27:39;;;;;;;22.40;21.23;;;;;;;9.28;74.51;97864.22;5010714;28;20029;-76
2023/04/11 08:30:05;;;;;;;11.15;10.15;;;;;;;9.15;72.87;97869.91;5011778;28;20488;-76
2023/04/11 08:32:31;;;;;;;11.38;10.57;;;;;;;9.57;71.35;97873.81;5000249;28;20042;-76
2023/04/11 08:34:56;;;;;;;7.07;6.22;;;;;;;9.52;71.65;97870.25;4995776;28;20037;-76
2023/04/11 08:37:21;;;;;;;9.55;4.32;;;;;;;9.42;69.65;97870.91;5010655;28;20026;-76
2023/04/11 08:39:47;;;;;;;5.22;3.40;;;;;;;9.90;67.68;97872.13;4981191;28;20030;-76
2023/04/11 08:42:23;;;;;;;5.38;2.50;;;;;;;9.48;67.32;97867.22;4994086;28;20519;-76
2023/04/11 08:44:51;;;;;;;4.53;2.28;;;;;;;9.41;67.25;97869.28;5010187;28;20033;-76
2023/04/11 08:47:17;;;;;;;5.90;2.85;;;;;;;9.49;67.76;97871.56;4994213;28;20025;-76
2023/04/11 08:49:42;;;;;;;6.57;2.85;;;;;;;9.53;67.49;97870.00;4993869;28;20044;-76
2023/04/11 08:52:08;;;;;;;7.63;3.90;;;;;;;10.32;68.06;97865.19;5011455;28;20040;-76
2023/04/11 08:54:33;;;;;;;8.10;2.90;;;;;;;9.85;67.54;97861.34;5010216;28;20537;-77
2023/04/11 08:56:58;;;;;;;3.97;2.00;;;;;;;10.28;64.24;97874.84;5010351;28;20487;-76
2023/04/11 08:59:24;;;;;;;4.75;2.00;;;;;;;10.47;63.50;97862.69;5011485;28;20041;-76
2023/04/11 09:01:50;;;;;;;5.22;2.90;;;;;;;11.06;64.99;97856.31;4993960;28;20479;-76
2023/04/11 09:04:15;;;;;;;3.22;1.80;;;;;;;10.58;64.37;97869.81;5010248;28;20113;-76
2023/04/11 09:06:55;;;;;;;4.20;1.55;;;;;;;10.21;64.43;97874.22;4994024;28;20022;-76
2023/04/11 09:09:30;;;;;;;4.20;2.00;;;;;;;9.85;65.97;97877.47;5004179;28;20038;-76
2023/04/11 09:11:55;;;;;;;9.20;2.57;;;;;;;9.79;65.85;97873.06;5004376;28;20037;-76
2023/04/11 09:14:25;;;;;;;5.35;2.83;;;;;;;9.63;67.51;97872.84;5010062;28;20330;-76
2023/04/11 09:17:03;;;;;;;6.30;2.28;;;;;;;9.59;65.57;97876.28;5010032;28;20380;-76
2023/04/11 09:19:32;;;;;;;7.50;2.55;;;;;;;9.73;66.18;97878.34;5010213;28;20065;-76
2023/04/11 09:22:00;;;;;;;8.70;2.70;;;;;;;9.77;66.84;97861.75;5003536;28;20373;-77
2023/04/11 09:24:28;;;;;;;4.65;2.20;;;;;;;9.97;64.21;97860.16;4984866;28;20491;-77
2023/04/11 09:27:12;;;;;;;4.45;1.75;;;;;;;9.89;61.70;97867.84;5010103;28;20022;-77
2023/04/11 09:29:38;;;;;;;5.28;2.03;;;;;;;10.10;61.77;97857.09;5010230;28;20042;-77
2023/04/11 09:32:04;;;;;;;4.93;2.00;;;;;;;10.30;60.99;97861.94;5015000;28;20034;-76
2023/04/11 09:34:30;;;;;;;7.28;2.65;;;;;;;10.23;62.71;97862.13;4997346;28;20423;-77
2023/04/11 09:36:55;;;;;;;5.00;1.73;;;;;;;10.27;60.34;97840.91;4984387;28;20025;-77
2023/04/11 09:39:21;;;;;;;6.70;2.33;;;;;;;10.13;61.88;97861.19;5013758;28;20434;-77
2023/04/11 09:41:46;;;;;;;6.50;2.30;;;;;;;10.04;58.80;97858.09;5013412;28;20109;-76
2023/04/11 09:44:12;;;;;;;7.07;2.80;;;;;;;10.11;61.13;97857.91;5014644;28;20088;-75
2023/04/11 09:46:57;;;;;;;7.53;2.90;;;;;;;10.44;60.65;97841.66;5007644;28;20026;-76
2023/04/11 09:49:23;;;;;;;6.97;2.05;;;;;;;10.80;59.53;97851.75;5009025;28;20049;-76
2023/04/11 09:51:50;;;;;;;4.65;1.67;;;;;;;10.68;59.18;97853.78;5013253;28;20025;-76
2023/04/11 09:54:15;;;;;;;3.83;1.80;;;;;;;10.66;57.64;97845.16;5013037;28;20038;-76
2023/04/11 09:56:41;;;;;;;7.78;2.17;;;;;;;10.87;56.66;97841.59;4980841;28;20026;-76
2023/04/11 09:59:07;;;;;;;6.50;2.10;;;;;;;11.24;55.95;97835.44;5014483;28;20114;-75
2023/04/11 10:01:32;;;;;;;4.70;1.85;;;;;;;11.45;56.87;97842.63;5013296;28;20545;-75
2023/04/11 10:03:59;;;;;;;5.10;1.80;;;;;;;11.15;57.17;97848.59;4996608;28;20064;-75
2023/04/11 10:07:02;;;;;;;7.18;1.70;;;;;;;10.97;55.92;97849.75;5013353;28;20026;-75
2023/04/11 10:09:28;;;;;;;5.75;1.65;;;;;;;10.94;54.47;97863.75;4973290;28;20060;-78
2023/04/11 10:11:54;;;;;;;4.47;1.60;;;;;;;11.41;55.50;97844.22;5002972;28;20594;-77
2023/04/11 10:14:38;;;;;;;6.47;1.75;;;;;;;11.15;52.67;97842.38;5019558;28;20049;-77
2023/04/11 10:17:17;;;;;;;5.22;1.55;;;;;;;11.60;52.13;97862.41;5020767;28;20041;-77
2023/04/11 10:19:43;;;;;;;6.43;1.75;;;;;;;11.43;50.50;97855.56;5003439;28;20403;-78
2023/04/11 10:22:10;;;;;;;6.30;1.95;;;;;;;11.45;51.13;97848.00;5000338;28;20061;-78
2023/04/11 10:24:35;;;;;;;5.93;2.10;;;;;;;11.34;50.40;97857.88;5019441;28;20045;-76
2023/04/11 10:27:02;;;;;;;6.00;2.10;;;;;;;11.81;49.74;97846.41;5019397;28;20033;-78
2023/04/11 10:29:28;;;;;;;5.55;2.22;;;;;;;11.70;48.03;97826.63;5019596;28;20046;-77
2023/04/11 10:32:18;;;;;;;4.13;1.90;;;;;;;11.49;49.28;97832.94;5020244;28;20033;-77
2023/04/11 10:34:49;;;;;;;3.10;1.42;;;;;;;11.47;48.95;97848.56;5019005;28;20061;-78
2023/04/11 10:37:16;;;;;;;5.78;1.55;;;;;;;11.64;49.98;97841.16;5019256;28;20038;-78
2023/04/11 10:39:50;;;;;;;4.05;1.60;;;;;;;11.99;48.39;97857.59;5019244;28;20379;-78
2023/04/11 10:42:37;;;;;;;3.42;1.60;;;;;;;11.87;49.22;97859.66;5018027;28;20038;-77
2023/04/11 10:45:28;;;;;;;5.10;1.88;;;;;;;11.90;49.16;97869.94;5019999;28;20034;-78
2023/04/11 10:48:10;;;;;;;4.60;1.50;;;;;;;11.53;49.54;97855.59;5003294;28;20033;-78
2023/04/11 10:50:41;;;;;;;5.70;1.60;;;;;;;11.27;49.14;97857.28;5002644;28;20069;-78
2023/04/11 10:53:32;;;;;;;4.75;2.00;;;;;;;10.90;50.27;97873.41;5040100;23;20037;-76
2023/04/11 10:55:58;;;;;;;5.18;1.58;;;;;;;10.75;50.55;97873.25;5068748;28;20410;-75
2023/04/11 10:58:33;;;;;;;4.78;2.00;;;;;;;10.82;52.28;97883.81;5035350;28;20032;-77
2023/04/11 11:00:58;;;;;;;4.88;1.77;;;;;;;10.92;50.83;97886.63;5053086;28;20037;-76
2023/04/11 11:03:28;;;;;;;3.50;1.30;;;;;;;10.87;51.03;97879.31;5051565;28;20363;-76
2023/04/11 11:06:02;;;;;;;3.85;1.60;;;;;;;11.51;48.16;97873.94;5035430;28;20047;-76
2023/04/11 11:08:29;;;;;;;6.00;1.50;;;;;;;11.96;48.57;97866.19;5053089;28;20706;-76
2023/04/11 11:11:00;;;;;;;6.65;1.75;;;;;;;12.26;47.59;97893.34;5051741;28;20021;-76
2023/04/11 11:13:37;;;;;;;3.85;1.40;;;;;;;12.08;46.02;97884.88;5051215;28;20044;-76
2023/04/11 11:16:03;;;;;;;5.32;1.45;;;;;;;12.04;47.49;97873.78;5051655;28;20066;-76
2023/04/11 11:18:28;;;;;;;5.80;1.90;;;;;;;12.01;46.77;97871.63;5034857;28;20036;-76
2023/04/11 11:20:54;;;;;;;3.58;1.55;;;;;;;12.45;48.42;97864.81;5034941;28;20182;-76
2023/04/11 11:23:20;;;;;;;4.35;1.42;;;;;;;13.09;47.21;97867.97;5016821;28;20021;-76
2023/04/11 11:25:52;;;;;;;5.05;1.60;;;;;;;13.12;47.78;97874.75;5011729;28;20399;-76
2023/04/11 11:28:18;;;;;;;4.55;1.40;;;;;;;12.73;47.78;97887.06;5026571;28;20094;-76
2023/04/11 11:30:53;;;;;;;4.30;1.58;;;;;;;12.63;48.65;97887.84;5051274;28;20025;-75